createdAt,value
2023-12-22T00:00:06.509Z,2.20
2023-12-22T00:02:37.409Z,2.83
2023-12-22T00:05:07.882Z,3.83
2023-12-22T00:07:35.963Z,3.10
2023-12-22T00:10:04.202Z,2.50
2023-12-22T00:12:32.531Z,1.67
2023-12-22T00:15:01.100Z,1.60
2023-12-22T00:17:29.134Z,1.83
2023-12-22T00:20:00.336Z,2.20
2023-12-22T00:22:29.843Z,2.08
2023-12-22T00:24:58.672Z,1.75
2023-12-22T00:27:26.797Z,2.83
2023-12-22T00:29:55.785Z,3.35
2023-12-22T00:32:24.105Z,4.07
2023-12-22T00:34:52.594Z,2.65
2023-12-22T00:37:20.810Z,3.03
2023-12-22T00:39:50.634Z,1.77
2023-12-22T00:42:19.007Z,1.88
2023-12-22T00:44:48.783Z,1.85
2023-12-22T00:47:17.707Z,2.22
2023-12-22T00:49:46.245Z,2.50
2023-12-22T00:52:14.709Z,3.03
2023-12-22T00:54:43.026Z,2.70
2023-12-22T00:57:13.576Z,1.85
2023-12-22T00:59:46.528Z,3.05
2023-12-22T01:02:14.957Z,2.22
2023-12-22T01:04:43.415Z,2.42
2023-12-22T01:07:12.239Z,2.42
2023-12-22T01:09:40.784Z,2.42
2023-12-22T01:12:10.386Z,3.00
2023-12-22T01:14:40.119Z,2.10
2023-12-22T01:17:08.731Z,2.80
2023-12-22T01:23:47.582Z,2.53
2023-12-22T01:26:16.247Z,2.75
2023-12-22T01:28:44.626Z,3.08
2023-12-22T01:31:14.574Z,2.30
2023-12-22T01:33:43.180Z,3.53
2023-12-22T01:36:11.801Z,2.38
2023-12-22T01:38:40.357Z,2.03
2023-12-22T01:41:09.828Z,1.85
2023-12-22T01:43:38.086Z,2.97
2023-12-22T01:46:06.892Z,2.67
2023-12-22T01:48:39.032Z,2.10
2023-12-22T01:51:09.674Z,2.95
2023-12-22T01:53:40.072Z,2.40
2023-12-22T01:56:09.110Z,2.20
2023-12-22T01:58:39.569Z,2.00
2023-12-22T02:01:19.549Z,2.67
2023-12-22T02:03:53.837Z,1.75
2023-12-22T02:06:23.062Z,2.40
2023-12-22T02:08:52.451Z,1.90
2023-12-22T02:11:20.817Z,2.20
2023-12-22T02:13:49.383Z,2.60
2023-12-22T02:16:21.505Z,2.20
2023-12-22T02:18:55.229Z,2.47
2023-12-22T02:21:25.048Z,2.97
2023-12-22T02:23:54.808Z,2.60
2023-12-22T02:26:31.422Z,1.80
2023-12-22T02:29:00.947Z,1.80
2023-12-22T02:31:38.472Z,2.63
2023-12-22T02:34:09.782Z,2.22
2023-12-22T02:36:40.463Z,2.28
2023-12-22T02:39:12.551Z,2.85
2023-12-22T02:41:42.599Z,2.45
2023-12-22T02:44:10.975Z,2.92
2023-12-22T02:46:39.463Z,2.45
2023-12-22T02:49:07.774Z,3.55
2023-12-22T02:51:36.103Z,2.50
2023-12-22T02:54:05.208Z,3.00
2023-12-22T02:56:34.834Z,2.58
2023-12-22T02:59:03.103Z,2.33
2023-12-22T03:01:32.864Z,1.85
2023-12-22T03:04:01.943Z,3.45
2023-12-22T03:06:30.366Z,2.40
2023-12-22T03:08:58.409Z,3.33
2023-12-22T03:11:26.560Z,2.88
2023-12-22T03:13:56.045Z,2.90
2023-12-22T03:16:24.229Z,3.20
2023-12-22T03:18:53.094Z,3.65
2023-12-22T03:21:21.668Z,2.60
2023-12-22T03:23:50.558Z,3.08
2023-12-22T03:26:19.034Z,1.98
2023-12-22T03:28:47.165Z,2.33
2023-12-22T03:31:17.273Z,2.92
2023-12-22T03:33:45.639Z,2.78
2023-12-22T03:36:14.065Z,3.63
2023-12-22T03:38:42.153Z,3.90
2023-12-22T03:41:10.296Z,3.40
2023-12-22T03:43:39.284Z,2.50
2023-12-22T03:46:07.554Z,3.80
2023-12-22T03:48:37.123Z,2.70
2023-12-22T03:51:05.798Z,4.43
2023-12-22T03:53:34.394Z,2.80
2023-12-22T03:56:02.726Z,3.00
2023-12-22T03:58:31.481Z,4.80
2023-12-22T04:00:59.593Z,3.42
2023-12-22T04:03:27.796Z,3.47
2023-12-22T04:05:57.305Z,1.83
2023-12-22T04:08:27.222Z,3.97
2023-12-22T04:10:55.431Z,2.88
2023-12-22T04:13:23.549Z,2.90
2023-12-22T04:15:51.737Z,2.72
2023-12-22T04:18:20.800Z,2.97
2023-12-22T04:20:50.928Z,4.45
2023-12-22T04:23:20.533Z,3.63
2023-12-22T04:25:48.726Z,4.95
2023-12-22T04:28:16.856Z,3.97
2023-12-22T04:30:45.249Z,5.45
2023-12-22T04:33:14.609Z,3.30
2023-12-22T04:35:43.191Z,3.92
2023-12-22T04:38:11.279Z,3.42
2023-12-22T04:40:40.894Z,3.63
2023-12-22T04:43:10.325Z,3.25
2023-12-22T04:45:38.495Z,3.75
2023-12-22T04:48:07.856Z,3.95
2023-12-22T04:50:36.070Z,3.17
2023-12-22T04:53:04.321Z,3.58
2023-12-22T04:55:32.617Z,6.47
2023-12-22T04:58:02.267Z,3.05
2023-12-22T05:00:30.368Z,3.45
2023-12-22T05:02:58.416Z,3.85
2023-12-22T05:05:26.618Z,4.65
2023-12-22T05:07:54.816Z,3.22
2023-12-22T05:10:24.864Z,2.40
2023-12-22T05:12:52.922Z,2.15
2023-12-22T05:15:22.510Z,1.98
2023-12-22T05:17:50.906Z,2.42
2023-12-22T05:20:19.281Z,1.80
2023-12-22T05:22:47.497Z,2.20
2023-12-22T05:25:16.079Z,2.58
2023-12-22T05:27:44.890Z,1.85
2023-12-22T05:30:14.639Z,2.30
2023-12-22T05:32:44.671Z,2.45
2023-12-22T05:35:13.265Z,1.25
2023-12-22T05:37:42.325Z,1.52
2023-12-22T05:40:11.236Z,2.30
2023-12-22T05:42:39.206Z,2.85
2023-12-22T05:45:08.612Z,2.08
2023-12-22T05:47:36.806Z,1.65
2023-12-22T05:50:07.624Z,2.65
2023-12-22T05:52:35.748Z,2.50
2023-12-22T05:55:04.643Z,2.08
2023-12-22T05:57:32.717Z,1.80
2023-12-22T06:00:01.370Z,1.83
2023-12-22T06:02:29.639Z,1.67
2023-12-22T06:04:58.860Z,1.83
2023-12-22T06:07:28.550Z,2.70
2023-12-22T06:09:56.733Z,1.80
2023-12-22T06:12:26.901Z,1.40
2023-12-22T06:14:55.010Z,1.20
2023-12-22T06:17:23.478Z,1.95
2023-12-22T06:19:51.822Z,1.85
2023-12-22T06:22:19.806Z,1.25
2023-12-22T06:24:49.215Z,1.13
2023-12-22T06:27:18.142Z,1.20
2023-12-22T06:29:46.386Z,1.05
2023-12-22T06:32:14.519Z,1.20
2023-12-22T06:34:42.668Z,1.38
2023-12-22T06:37:12.131Z,0.93
2023-12-22T06:39:44.149Z,1.42
2023-12-22T06:42:44.537Z,1.27
2023-12-22T06:45:13.613Z,1.42
2023-12-22T06:47:42.048Z,1.45
2023-12-22T06:50:11.105Z,0.85
2023-12-22T06:52:39.413Z,1.10
2023-12-22T06:55:08.505Z,1.60
2023-12-22T06:57:37.168Z,1.35
2023-12-22T07:00:09.219Z,1.23
2023-12-22T07:02:37.569Z,1.10
2023-12-22T07:05:35.512Z,1.23
2023-12-22T07:08:03.699Z,1.30
2023-12-22T07:10:32.246Z,1.77
2023-12-22T07:13:00.642Z,1.60
2023-12-22T07:15:35.116Z,2.60
2023-12-22T07:18:03.551Z,1.40
2023-12-22T07:20:32.170Z,2.00
2023-12-22T07:23:00.585Z,1.60
2023-12-22T07:25:29.612Z,1.60
2023-12-22T07:27:58.726Z,1.75
2023-12-22T07:30:26.892Z,2.05
2023-12-22T07:32:56.300Z,1.85
2023-12-22T07:35:24.422Z,2.15
2023-12-22T07:37:53.193Z,2.00
2023-12-22T07:40:22.453Z,1.73
2023-12-22T07:42:52.344Z,2.05
2023-12-22T07:45:21.189Z,3.00
2023-12-22T07:47:50.706Z,1.77
2023-12-22T07:50:20.822Z,2.45
2023-12-22T07:52:51.365Z,1.75
2023-12-22T07:55:19.962Z,2.33
2023-12-22T07:57:48.485Z,1.50
2023-12-22T08:00:17.775Z,1.88
2023-12-22T08:02:46.002Z,1.80
2023-12-22T08:05:15.930Z,1.85
2023-12-22T08:07:46.373Z,1.33
2023-12-22T08:10:14.417Z,3.10
2023-12-22T08:12:43.879Z,2.63
2023-12-22T08:15:18.975Z,2.33
2023-12-22T08:17:54.236Z,1.20
2023-12-22T08:20:28.977Z,1.25
2023-12-22T08:23:04.973Z,1.30
2023-12-22T08:25:36.157Z,1.08
2023-12-22T08:28:05.808Z,2.67
2023-12-22T08:30:34.741Z,1.48
2023-12-22T08:33:03.136Z,1.25
2023-12-22T08:35:31.741Z,1.42
2023-12-22T08:38:01.233Z,1.42
2023-12-22T08:40:29.942Z,1.20
2023-12-22T08:43:02.002Z,1.00
2023-12-22T08:45:31.074Z,0.77
2023-12-22T08:47:59.514Z,0.90
2023-12-22T08:50:28.289Z,1.42
2023-12-22T08:53:00.019Z,1.05
2023-12-22T08:55:30.670Z,0.98
2023-12-22T08:58:02.809Z,0.63
2023-12-22T09:00:31.648Z,0.85
2023-12-22T09:02:59.745Z,0.40
2023-12-22T09:05:27.991Z,1.27
2023-12-22T09:10:25.109Z,0.40
2023-12-22T09:12:54.405Z,0.50
2023-12-22T09:15:23.932Z,0.60
2023-12-22T09:18:51.098Z,0.52
2023-12-22T09:22:18.347Z,0.40
2023-12-22T09:25:45.927Z,0.40
2023-12-22T09:29:14.558Z,0.77
2023-12-22T09:32:41.536Z,0.47
2023-12-22T09:36:08.709Z,2.45
2023-12-22T09:39:36.197Z,0.90
2023-12-22T09:43:04.286Z,0.90
2023-12-22T09:46:33.597Z,1.50
2023-12-22T09:50:04.616Z,1.55
2023-12-22T09:53:33.460Z,1.45
2023-12-22T09:57:11.238Z,1.95
2023-12-22T09:59:51.472Z,1.83
2023-12-22T10:02:26.022Z,1.48
2023-12-22T10:04:54.524Z,1.75
2023-12-22T10:07:23.946Z,2.13
2023-12-22T10:09:52.788Z,2.28
2023-12-22T10:12:22.150Z,1.33
2023-12-22T10:14:50.389Z,2.22
2023-12-22T10:17:18.961Z,1.10
2023-12-22T10:19:49.925Z,2.13
2023-12-22T10:22:19.844Z,0.70
2023-12-22T10:24:51.357Z,1.35
2023-12-22T10:27:24.405Z,1.25
2023-12-22T10:29:53.857Z,1.98
2023-12-22T10:32:22.620Z,1.02
2023-12-22T10:34:53.700Z,0.90
2023-12-22T10:37:23.293Z,1.92
2023-12-22T10:39:55.537Z,1.02
2023-12-22T10:42:23.971Z,1.98
2023-12-22T10:44:53.254Z,1.00
2023-12-22T10:47:24.026Z,1.35
2023-12-22T10:49:53.714Z,1.50
2023-12-22T10:52:22.735Z,0.88
2023-12-22T10:54:51.263Z,1.20
2023-12-22T10:57:21.009Z,0.88
2023-12-22T10:59:57.546Z,0.70
2023-12-22T11:02:31.054Z,1.73
2023-12-22T11:05:06.362Z,1.90
2023-12-22T11:07:35.907Z,1.30
2023-12-22T11:10:07.421Z,2.58
2023-12-22T11:12:37.576Z,1.08
2023-12-22T11:15:08.655Z,0.82
2023-12-22T11:17:42.063Z,1.42
2023-12-22T11:20:15.231Z,0.80
2023-12-22T11:22:45.210Z,1.98
2023-12-22T11:25:17.536Z,1.48
2023-12-22T11:27:47.051Z,1.58
2023-12-22T11:30:16.555Z,1.25
2023-12-22T11:32:47.715Z,0.90
2023-12-22T11:35:18.635Z,1.42
2023-12-22T11:37:48.036Z,1.40
2023-12-22T11:40:16.583Z,1.42
2023-12-22T11:42:52.520Z,1.55
2023-12-22T11:45:22.331Z,1.65
2023-12-22T11:47:50.958Z,1.42
2023-12-22T11:50:32.522Z,1.92
2023-12-22T11:53:23.276Z,1.63
2023-12-22T11:55:59.525Z,1.65
2023-12-22T11:58:41.559Z,1.25
2023-12-22T12:01:11.742Z,2.60
2023-12-22T12:03:42.906Z,0.98
2023-12-22T12:06:23.910Z,1.13
2023-12-22T12:08:52.365Z,1.85
2023-12-22T12:11:21.477Z,1.40
2023-12-22T12:13:51.586Z,1.10
2023-12-22T12:16:22.698Z,1.30
2023-12-22T12:18:54.004Z,1.15
2023-12-22T12:21:24.355Z,0.75
2023-12-22T12:23:53.082Z,1.08
2023-12-22T12:26:22.051Z,1.10
2023-12-22T12:28:51.684Z,1.10
2023-12-22T12:31:19.875Z,0.90
2023-12-22T12:33:49.145Z,0.60
2023-12-22T12:36:17.747Z,1.00
2023-12-22T12:38:55.634Z,1.10
2023-12-22T12:41:34.959Z,1.45
2023-12-22T12:44:06.310Z,1.15
2023-12-22T12:46:37.074Z,1.30
2023-12-22T12:51:59.342Z,1.05
2023-12-22T12:54:30.627Z,3.80
2023-12-22T12:56:58.983Z,0.93
2023-12-22T12:59:27.390Z,2.40
2023-12-22T13:01:55.819Z,0.93
2023-12-22T13:04:25.118Z,1.60
2023-12-22T13:06:53.452Z,1.45
2023-12-22T13:09:23.873Z,1.75
2023-12-22T13:11:54.383Z,2.35
2023-12-22T13:14:26.574Z,1.90
2023-12-22T13:16:56.676Z,1.67
2023-12-22T13:19:26.000Z,2.35
2023-12-22T13:21:55.307Z,1.80
2023-12-22T13:24:23.582Z,1.63
2023-12-22T13:27:04.784Z,1.00
2023-12-22T13:29:44.823Z,2.05
2023-12-22T13:32:25.298Z,3.47
2023-12-22T13:34:54.794Z,1.33
2023-12-22T13:37:23.494Z,1.60
2023-12-22T13:39:52.730Z,1.85
2023-12-22T13:42:23.192Z,1.40
2023-12-22T13:44:53.693Z,2.42
2023-12-22T13:47:22.255Z,1.38
2023-12-22T13:49:51.255Z,2.33
2023-12-22T13:52:33.873Z,1.60
2023-12-22T13:55:04.287Z,1.23
2023-12-22T13:57:33.973Z,2.10
2023-12-22T14:00:03.733Z,1.92
2023-12-22T14:02:33.061Z,1.20
2023-12-22T14:05:01.578Z,1.58
2023-12-22T14:07:30.045Z,1.17
2023-12-22T14:09:59.545Z,1.58
2023-12-22T14:12:32.158Z,1.00
2023-12-22T14:15:02.794Z,1.00
2023-12-22T14:17:32.063Z,0.90
2023-12-22T14:20:02.068Z,0.77
2023-12-22T14:22:30.567Z,0.90
2023-12-22T14:24:59.531Z,0.80
2023-12-22T14:27:27.898Z,0.95
2023-12-22T14:29:56.167Z,0.60
2023-12-22T14:32:26.188Z,0.70
2023-12-22T14:34:54.517Z,0.88
2023-12-22T14:37:22.796Z,0.70
2023-12-22T14:39:51.195Z,0.40
2023-12-22T14:42:19.594Z,0.57
2023-12-22T14:44:47.815Z,0.73
2023-12-22T14:47:16.659Z,1.15
2023-12-22T14:49:46.762Z,0.40
2023-12-22T14:52:15.136Z,0.70
2023-12-22T14:54:43.412Z,0.77
2023-12-22T14:57:11.510Z,0.52
2023-12-22T14:59:39.839Z,0.50
2023-12-22T15:02:08.017Z,0.65
2023-12-22T15:04:36.070Z,1.45
2023-12-22T15:07:07.172Z,0.75
2023-12-22T15:09:36.014Z,0.73
2023-12-22T15:12:04.566Z,0.82
2023-12-22T15:14:32.892Z,0.73
2023-12-22T15:17:01.373Z,0.95
2023-12-22T15:19:30.059Z,1.48
2023-12-22T15:21:58.143Z,1.00
2023-12-22T15:24:27.806Z,0.73
2023-12-22T15:26:56.152Z,0.73
2023-12-22T15:29:25.212Z,0.90
2023-12-22T15:31:58.011Z,1.05
2023-12-22T15:34:26.206Z,0.80
2023-12-22T15:36:54.380Z,0.90
2023-12-22T15:39:23.163Z,0.90
2023-12-22T15:41:53.129Z,0.93
2023-12-22T15:44:22.753Z,0.80
2023-12-22T15:46:50.948Z,1.50
2023-12-22T15:49:19.246Z,1.20
2023-12-22T15:51:47.422Z,1.20
2023-12-22T15:54:17.311Z,1.50
2023-12-22T15:56:45.732Z,1.60
2023-12-22T15:59:16.237Z,1.50
2023-12-22T16:01:45.611Z,1.25
2023-12-22T16:04:12.940Z,1.35
2023-12-22T16:06:41.041Z,1.75
2023-12-22T16:09:09.155Z,1.98
2023-12-22T16:11:39.437Z,1.45
2023-12-22T16:14:07.885Z,1.30
2023-12-22T16:16:37.468Z,1.00
2023-12-22T16:19:08.313Z,1.15
2023-12-22T16:21:45.347Z,1.60
2023-12-22T16:24:13.861Z,1.23
2023-12-22T16:26:42.255Z,2.05
2023-12-22T16:29:10.499Z,1.35
2023-12-22T16:31:41.758Z,1.80
2023-12-22T16:34:12.169Z,1.35
2023-12-22T16:36:40.552Z,1.95
2023-12-22T16:39:09.067Z,1.58
2023-12-22T16:41:40.068Z,2.03
2023-12-22T16:44:08.495Z,2.22
2023-12-22T16:46:36.837Z,2.78
2023-12-22T16:49:07.995Z,1.98
2023-12-22T16:51:44.068Z,1.30
2023-12-22T16:54:12.232Z,1.80
2023-12-22T16:56:40.420Z,1.50
2023-12-22T16:59:08.737Z,2.10
2023-12-22T17:01:41.029Z,1.30
2023-12-22T17:04:13.462Z,1.50
2023-12-22T17:06:49.354Z,1.20
2023-12-22T17:09:20.095Z,1.45
2023-12-22T17:11:49.175Z,1.37
2023-12-22T17:14:19.670Z,1.50
2023-12-22T17:16:48.583Z,1.60
2023-12-22T17:19:18.485Z,1.58
2023-12-22T17:21:47.216Z,1.23
2023-12-22T17:24:15.224Z,1.17
2023-12-22T17:26:43.593Z,1.30
2023-12-22T17:29:11.958Z,1.58
2023-12-22T17:31:40.670Z,1.42
2023-12-22T17:34:09.546Z,1.52
2023-12-22T17:36:39.134Z,1.13
2023-12-22T17:39:07.248Z,1.58
2023-12-22T17:41:35.666Z,1.63
2023-12-22T17:44:04.321Z,0.75
2023-12-22T17:46:35.237Z,1.52
2023-12-22T17:49:03.713Z,1.13
2023-12-22T17:51:32.936Z,0.98
2023-12-22T17:54:02.651Z,0.70
2023-12-22T17:56:31.107Z,1.25
2023-12-22T17:58:59.439Z,0.90
2023-12-22T18:01:27.573Z,0.68
2023-12-22T18:03:56.013Z,0.70
2023-12-22T18:06:25.711Z,1.00
2023-12-22T18:08:54.266Z,0.70
2023-12-22T18:11:23.940Z,0.50
2023-12-22T18:13:54.192Z,1.05
2023-12-22T18:16:22.934Z,0.38
2023-12-22T18:18:51.994Z,0.50
2023-12-22T18:21:20.237Z,0.40
2023-12-22T18:23:48.998Z,0.47
2023-12-22T18:26:17.078Z,0.45
2023-12-22T18:28:46.637Z,0.60
2023-12-22T18:31:14.945Z,0.40
2023-12-22T18:33:43.621Z,0.80
2023-12-22T18:36:11.928Z,0.30
2023-12-22T18:38:42.642Z,0.47
2023-12-22T18:41:12.054Z,0.20
2023-12-22T18:43:40.465Z,0.40
2023-12-22T18:46:18.362Z,0.40
2023-12-22T18:52:10.331Z,0.40
2023-12-22T18:54:39.163Z,0.50
2023-12-22T18:57:07.235Z,0.30
2023-12-22T18:59:35.828Z,0.60
2023-12-22T19:02:23.084Z,0.80
2023-12-22T19:04:54.461Z,0.75
2023-12-22T19:07:23.022Z,0.82
2023-12-22T19:09:53.539Z,0.60
2023-12-22T19:12:22.407Z,0.40
2023-12-22T19:14:51.457Z,0.30
2023-12-22T19:17:21.103Z,0.50
2023-12-22T19:19:50.521Z,0.68
2023-12-22T19:22:18.935Z,0.50
2023-12-22T19:24:47.109Z,0.60
2023-12-22T19:27:15.119Z,0.70
2023-12-22T19:29:44.568Z,0.50
2023-12-22T19:32:12.670Z,0.73
2023-12-22T19:34:42.220Z,0.70
2023-12-22T19:37:10.664Z,0.70
2023-12-22T19:39:38.830Z,0.50
2023-12-22T19:42:07.347Z,0.82
2023-12-22T19:44:35.655Z,1.27
2023-12-22T19:47:04.231Z,0.50
2023-12-22T19:49:32.570Z,0.90
2023-12-22T19:52:03.725Z,1.02
2023-12-22T19:54:32.280Z,0.63
2023-12-22T19:57:00.503Z,0.82
2023-12-22T19:59:28.655Z,0.50
2023-12-22T20:01:58.666Z,0.95
2023-12-22T20:04:27.025Z,0.90
2023-12-22T20:06:55.117Z,1.05
2023-12-22T20:09:24.721Z,1.02
2023-12-22T20:11:53.190Z,1.48
2023-12-22T20:14:21.883Z,0.80
2023-12-22T20:16:53.010Z,1.23
2023-12-22T20:19:22.198Z,1.40
2023-12-22T20:21:50.274Z,1.10
2023-12-22T20:24:18.572Z,1.05
2023-12-22T20:26:48.045Z,0.60
2023-12-22T20:29:16.161Z,0.70
2023-12-22T20:31:44.457Z,0.88
2023-12-22T20:34:12.633Z,1.00
2023-12-22T20:36:41.447Z,1.00
2023-12-22T20:39:09.543Z,1.05
2023-12-22T20:41:37.919Z,0.90
2023-12-22T20:44:08.685Z,1.27
2023-12-22T20:46:36.767Z,1.08
2023-12-22T20:49:05.445Z,1.38
2023-12-22T20:51:34.084Z,1.00
2023-12-22T20:54:02.496Z,0.80
2023-12-22T20:56:33.799Z,1.20
2023-12-22T20:59:02.406Z,0.90
2023-12-22T21:01:32.097Z,1.27
2023-12-22T21:04:00.532Z,1.45
2023-12-22T21:06:29.511Z,0.80
2023-12-22T21:08:57.791Z,1.35
2023-12-22T21:11:26.607Z,1.23
2023-12-22T21:13:54.832Z,1.42
2023-12-22T21:16:22.995Z,1.00
2023-12-22T21:18:52.857Z,1.20
2023-12-22T21:21:21.494Z,1.10
2023-12-22T21:23:49.725Z,1.30
2023-12-22T21:26:21.969Z,0.80
2023-12-22T21:28:51.041Z,2.05
2023-12-22T21:31:20.045Z,0.80
2023-12-22T21:33:48.531Z,1.08
2023-12-22T21:36:27.519Z,1.13
2023-12-22T21:38:56.019Z,0.75
2023-12-22T21:41:25.059Z,0.60
2023-12-22T21:43:55.437Z,0.80
2023-12-22T21:46:23.802Z,0.80
2023-12-22T21:48:52.012Z,1.00
2023-12-22T21:51:25.101Z,0.63
2023-12-22T21:53:54.791Z,1.60
2023-12-22T21:56:23.680Z,0.70
2023-12-22T21:58:51.905Z,0.70
2023-12-22T22:01:20.843Z,1.05
2023-12-22T22:03:49.288Z,0.88
2023-12-22T22:06:18.372Z,0.82
2023-12-22T22:08:46.594Z,1.00
2023-12-22T22:11:16.392Z,0.93
2023-12-22T22:13:45.044Z,0.90
2023-12-22T22:16:13.228Z,0.80
2023-12-22T22:18:41.590Z,0.80
2023-12-22T22:21:10.756Z,1.00
2023-12-22T22:23:39.054Z,1.10
2023-12-22T22:26:07.756Z,0.75
2023-12-22T22:28:37.345Z,0.95
2023-12-22T22:31:05.985Z,0.88
2023-12-22T22:33:34.331Z,0.73
2023-12-22T22:36:03.598Z,1.20
2023-12-22T22:38:31.828Z,1.55
2023-12-22T22:40:59.970Z,1.05
2023-12-22T22:43:28.253Z,1.05
2023-12-22T22:45:58.098Z,1.55
2023-12-22T22:48:26.287Z,1.55
2023-12-22T22:50:55.243Z,1.10
2023-12-22T22:53:23.803Z,0.70
2023-12-22T22:55:52.642Z,0.88
2023-12-22T22:58:20.928Z,0.90
2023-12-22T23:00:49.093Z,1.00
2023-12-22T23:03:19.016Z,1.65
2023-12-22T23:05:47.616Z,1.23
2023-12-22T23:08:15.837Z,1.08
2023-12-22T23:10:46.294Z,0.90
2023-12-22T23:13:15.147Z,0.93
2023-12-22T23:15:43.262Z,1.20
2023-12-22T23:18:11.547Z,0.60
2023-12-22T23:20:41.133Z,1.08
2023-12-22T23:23:10.182Z,0.50
2023-12-22T23:25:38.493Z,0.60
2023-12-22T23:28:07.256Z,0.50
2023-12-22T23:30:35.327Z,0.60
2023-12-22T23:33:05.576Z,1.05
2023-12-22T23:35:33.754Z,0.98
2023-12-22T23:38:03.344Z,1.30
2023-12-22T23:40:31.609Z,0.90
2023-12-22T23:42:59.988Z,0.90
2023-12-22T23:45:28.364Z,0.70
2023-12-22T23:47:56.996Z,0.60
2023-12-22T23:50:25.598Z,0.50
2023-12-22T23:52:53.893Z,0.50
2023-12-22T23:55:23.922Z,0.82
2023-12-22T23:57:52.276Z,0.73
